sensor_id;sensor_type;location;lat;lon;timestamp;P1;durP1;ratioP1;P2;durP2;ratioP2
78508;SDS011;67802;50.846;7.958;2023-06-14T00:02:03;7.60;;;4.15;;
78508;SDS011;67802;50.846;7.958;2023-06-14T00:04:29;6.60;;;4.50;;
78508;SDS011;67802;50.846;7.958;2023-06-14T00:06:55;6.93;;;4.28;;
78508;SDS011;67802;50.846;7.958;2023-06-14T00:09:21;6.47;;;4.13;;
78508;SDS011;67802;50.846;7.958;2023-06-14T00:11:47;8.68;;;4.50;;
78508;SDS011;67802;50.846;7.958;2023-06-14T00:14:13;7.75;;;4.10;;
78508;SDS011;67802;50.846;7.958;2023-06-14T00:16:39;7.75;;;4.28;;
78508;SDS011;67802;50.846;7.958;2023-06-14T00:19:07;6.75;;;4.07;;
78508;SDS011;67802;50.846;7.958;2023-06-14T00:21:33;7.47;;;4.30;;
78508;SDS011;67802;50.846;7.958;2023-06-14T00:24:00;6.72;;;4.18;;
78508;SDS011;67802;50.846;7.958;2023-06-14T00:26:25;8.05;;;4.30;;
78508;SDS011;67802;50.846;7.958;2023-06-14T00:28:51;8.15;;;4.50;;
78508;SDS011;67802;50.846;7.958;2023-06-14T00:31:17;6.38;;;4.07;;
78508;SDS011;67802;50.846;7.958;2023-06-14T00:33:42;8.15;;;4.53;;
78508;SDS011;67802;50.846;7.958;2023-06-14T00:36:07;6.63;;;4.05;;
78508;SDS011;67802;50.846;7.958;2023-06-14T00:38:32;9.77;;;4.60;;
78508;SDS011;67802;50.846;7.958;2023-06-14T00:40:58;8.40;;;4.40;;
78508;SDS011;67802;50.846;7.958;2023-06-14T00:43:23;8.90;;;4.60;;
78508;SDS011;67802;50.846;7.958;2023-06-14T00:45:48;10.07;;;4.90;;
78508;SDS011;67802;50.846;7.958;2023-06-14T00:48:16;9.02;;;4.35;;
78508;SDS011;67802;50.846;7.958;2023-06-14T00:50:42;8.15;;;4.35;;
78508;SDS011;67802;50.846;7.958;2023-06-14T00:53:10;8.23;;;4.35;;
78508;SDS011;67802;50.846;7.958;2023-06-14T00:55:37;8.15;;;4.68;;
78508;SDS011;67802;50.846;7.958;2023-06-14T00:58:02;8.50;;;4.38;;
78508;SDS011;67802;50.846;7.958;2023-06-14T01:00:28;8.70;;;4.20;;
78508;SDS011;67802;50.846;7.958;2023-06-14T01:02:53;7.82;;;4.13;;
78508;SDS011;67802;50.846;7.958;2023-06-14T01:05:19;7.32;;;4.13;;
78508;SDS011;67802;50.846;7.958;2023-06-14T01:08:03;12.35;;;4.85;;
78508;SDS011;67802;50.846;7.958;2023-06-14T01:13:27;8.18;;;4.00;;
78508;SDS011;67802;50.846;7.958;2023-06-14T01:15:57;8.15;;;3.58;;
78508;SDS011;67802;50.846;7.958;2023-06-14T01:18:23;7.85;;;3.65;;
78508;SDS011;67802;50.846;7.958;2023-06-14T01:20:50;7.60;;;3.88;;
78508;SDS011;67802;50.846;7.958;2023-06-14T01:23:20;10.18;;;4.00;;
78508;SDS011;67802;50.846;7.958;2023-06-14T01:25:47;9.00;;;3.97;;
78508;SDS011;67802;50.846;7.958;2023-06-14T01:28:17;9.88;;;3.85;;
78508;SDS011;67802;50.846;7.958;2023-06-14T01:30:44;8.02;;;4.22;;
78508;SDS011;67802;50.846;7.958;2023-06-14T01:33:17;7.75;;;3.80;;
78508;SDS011;67802;50.846;7.958;2023-06-14T01:35:48;9.23;;;3.80;;
78508;SDS011;67802;50.846;7.958;2023-06-14T01:38:17;8.75;;;3.90;;
78508;SDS011;67802;50.846;7.958;2023-06-14T01:40:44;6.50;;;3.78;;
78508;SDS011;67802;50.846;7.958;2023-06-14T01:43:14;6.50;;;3.78;;
78508;SDS011;67802;50.846;7.958;2023-06-14T01:45:41;8.20;;;4.13;;
78508;SDS011;67802;50.846;7.958;2023-06-14T01:48:08;10.45;;;3.60;;
78508;SDS011;67802;50.846;7.958;2023-06-14T01:50:34;7.03;;;3.83;;
78508;SDS011;67802;50.846;7.958;2023-06-14T01:53:00;6.95;;;3.42;;
78508;SDS011;67802;50.846;7.958;2023-06-14T01:55:26;7.18;;;3.50;;
78508;SDS011;67802;50.846;7.958;2023-06-14T01:57:51;7.43;;;3.58;;
78508;SDS011;67802;50.846;7.958;2023-06-14T02:00:17;7.22;;;3.53;;
78508;SDS011;67802;50.846;7.958;2023-06-14T02:02:43;7.63;;;3.40;;
78508;SDS011;67802;50.846;7.958;2023-06-14T02:05:09;6.55;;;3.50;;
78508;SDS011;67802;50.846;7.958;2023-06-14T02:07:35;6.65;;;3.47;;
78508;SDS011;67802;50.846;7.958;2023-06-14T02:10:01;9.40;;;3.70;;
78508;SDS011;67802;50.846;7.958;2023-06-14T02:12:27;7.13;;;3.40;;
78508;SDS011;67802;50.846;7.958;2023-06-14T02:14:52;7.63;;;3.50;;
78508;SDS011;67802;50.846;7.958;2023-06-14T02:17:19;6.63;;;3.25;;
78508;SDS011;67802;50.846;7.958;2023-06-14T02:19:44;7.60;;;3.35;;
78508;SDS011;67802;50.846;7.958;2023-06-14T02:22:09;7.80;;;3.50;;
78508;SDS011;67802;50.846;7.958;2023-06-14T02:24:34;6.15;;;3.10;;
78508;SDS011;67802;50.846;7.958;2023-06-14T02:27:01;6.95;;;3.70;;
78508;SDS011;67802;50.846;7.958;2023-06-14T02:29:26;10.82;;;3.78;;
78508;SDS011;67802;50.846;7.958;2023-06-14T02:31:52;6.65;;;3.70;;
78508;SDS011;67802;50.846;7.958;2023-06-14T02:34:17;8.98;;;3.33;;
78508;SDS011;67802;50.846;7.958;2023-06-14T02:36:43;6.43;;;3.28;;
78508;SDS011;67802;50.846;7.958;2023-06-14T02:39:10;7.63;;;3.35;;
78508;SDS011;67802;50.846;7.958;2023-06-14T02:41:36;7.25;;;3.17;;
78508;SDS011;67802;50.846;7.958;2023-06-14T02:44:01;7.50;;;3.20;;
78508;SDS011;67802;50.846;7.958;2023-06-14T02:46:27;6.32;;;3.35;;
78508;SDS011;67802;50.846;7.958;2023-06-14T02:48:52;7.85;;;3.22;;
78508;SDS011;67802;50.846;7.958;2023-06-14T02:51:18;9.20;;;3.22;;
78508;SDS011;67802;50.846;7.958;2023-06-14T02:53:43;7.10;;;3.63;;
78508;SDS011;67802;50.846;7.958;2023-06-14T02:56:08;6.95;;;3.30;;
78508;SDS011;67802;50.846;7.958;2023-06-14T02:58:36;12.38;;;3.65;;
78508;SDS011;67802;50.846;7.958;2023-06-14T03:01:01;5.95;;;3.05;;
78508;SDS011;67802;50.846;7.958;2023-06-14T03:03:28;7.43;;;3.75;;
78508;SDS011;67802;50.846;7.958;2023-06-14T03:05:54;8.45;;;3.45;;
78508;SDS011;67802;50.846;7.958;2023-06-14T03:08:20;8.48;;;3.38;;
78508;SDS011;67802;50.846;7.958;2023-06-14T03:10:46;8.40;;;3.60;;
78508;SDS011;67802;50.846;7.958;2023-06-14T03:13:12;9.43;;;3.60;;
78508;SDS011;67802;50.846;7.958;2023-06-14T03:15:38;6.93;;;3.75;;
78508;SDS011;67802;50.846;7.958;2023-06-14T03:18:06;7.13;;;3.67;;
78508;SDS011;67802;50.846;7.958;2023-06-14T03:20:33;8.27;;;3.90;;
78508;SDS011;67802;50.846;7.958;2023-06-14T03:23:01;7.03;;;3.35;;
78508;SDS011;67802;50.846;7.958;2023-06-14T03:25:28;7.10;;;3.67;;
78508;SDS011;67802;50.846;7.958;2023-06-14T03:27:56;6.32;;;3.28;;
78508;SDS011;67802;50.846;7.958;2023-06-14T03:30:21;8.65;;;3.83;;
78508;SDS011;67802;50.846;7.958;2023-06-14T03:32:47;7.85;;;3.50;;
78508;SDS011;67802;50.846;7.958;2023-06-14T03:35:12;6.60;;;3.38;;
78508;SDS011;67802;50.846;7.958;2023-06-14T03:37:42;7.85;;;3.80;;
78508;SDS011;67802;50.846;7.958;2023-06-14T03:40:08;7.78;;;3.20;;
78508;SDS011;67802;50.846;7.958;2023-06-14T03:42:34;6.80;;;3.67;;
78508;SDS011;67802;50.846;7.958;2023-06-14T03:44:59;6.35;;;3.28;;
78508;SDS011;67802;50.846;7.958;2023-06-14T03:47:24;6.43;;;3.30;;
78508;SDS011;67802;50.846;7.958;2023-06-14T03:49:50;8.57;;;3.60;;
78508;SDS011;67802;50.846;7.958;2023-06-14T03:52:15;7.80;;;3.40;;
78508;SDS011;67802;50.846;7.958;2023-06-14T03:54:42;6.55;;;3.42;;
78508;SDS011;67802;50.846;7.958;2023-06-14T03:57:09;6.20;;;3.35;;
78508;SDS011;67802;50.846;7.958;2023-06-14T03:59:35;9.05;;;3.50;;
78508;SDS011;67802;50.846;7.958;2023-06-14T04:02:01;6.80;;;3.78;;
78508;SDS011;67802;50.846;7.958;2023-06-14T04:04:27;6.90;;;3.30;;
78508;SDS011;67802;50.846;7.958;2023-06-14T04:06:57;7.25;;;3.30;;
78508;SDS011;67802;50.846;7.958;2023-06-14T04:09:23;7.70;;;3.13;;
78508;SDS011;67802;50.846;7.958;2023-06-14T04:11:50;7.97;;;3.45;;
78508;SDS011;67802;50.846;7.958;2023-06-14T04:14:17;7.53;;;3.03;;
78508;SDS011;67802;50.846;7.958;2023-06-14T04:16:43;6.68;;;3.60;;
78508;SDS011;67802;50.846;7.958;2023-06-14T04:19:09;7.75;;;2.80;;
78508;SDS011;67802;50.846;7.958;2023-06-14T04:21:34;13.20;;;3.33;;
78508;SDS011;67802;50.846;7.958;2023-06-14T04:23:59;11.65;;;3.30;;
78508;SDS011;67802;50.846;7.958;2023-06-14T04:26:27;6.75;;;2.95;;
78508;SDS011;67802;50.846;7.958;2023-06-14T04:28:58;7.00;;;2.90;;
78508;SDS011;67802;50.846;7.958;2023-06-14T04:31:26;7.53;;;3.10;;
78508;SDS011;67802;50.846;7.958;2023-06-14T04:33:54;6.43;;;3.20;;
78508;SDS011;67802;50.846;7.958;2023-06-14T04:36:20;6.47;;;3.38;;
78508;SDS011;67802;50.846;7.958;2023-06-14T04:38:45;5.88;;;3.03;;
78508;SDS011;67802;50.846;7.958;2023-06-14T04:41:11;8.20;;;3.08;;
78508;SDS011;67802;50.846;7.958;2023-06-14T04:43:37;5.43;;;3.10;;
78508;SDS011;67802;50.846;7.958;2023-06-14T04:46:04;7.63;;;3.00;;
78508;SDS011;67802;50.846;7.958;2023-06-14T04:48:30;7.10;;;3.13;;
78508;SDS011;67802;50.846;7.958;2023-06-14T04:50:56;6.72;;;3.13;;
78508;SDS011;67802;50.846;7.958;2023-06-14T04:53:21;6.07;;;2.95;;
78508;SDS011;67802;50.846;7.958;2023-06-14T04:55:48;6.63;;;2.90;;
78508;SDS011;67802;50.846;7.958;2023-06-14T04:58:14;7.78;;;3.00;;
78508;SDS011;67802;50.846;7.958;2023-06-14T05:00:39;7.22;;;3.00;;
78508;SDS011;67802;50.846;7.958;2023-06-14T05:03:04;8.32;;;3.17;;
78508;SDS011;67802;50.846;7.958;2023-06-14T05:05:31;6.88;;;3.08;;
78508;SDS011;67802;50.846;7.958;2023-06-14T05:07:57;7.55;;;2.88;;
78508;SDS011;67802;50.846;7.958;2023-06-14T05:10:22;7.25;;;2.90;;
78508;SDS011;67802;50.846;7.958;2023-06-14T05:12:48;5.55;;;2.83;;
78508;SDS011;67802;50.846;7.958;2023-06-14T05:15:14;9.48;;;2.95;;
78508;SDS011;67802;50.846;7.958;2023-06-14T05:17:39;6.40;;;2.70;;
78508;SDS011;67802;50.846;7.958;2023-06-14T05:20:06;7.60;;;2.60;;
78508;SDS011;67802;50.846;7.958;2023-06-14T05:22:32;8.32;;;2.72;;
78508;SDS011;67802;50.846;7.958;2023-06-14T05:24:57;6.82;;;2.83;;
78508;SDS011;67802;50.846;7.958;2023-06-14T05:27:23;5.70;;;2.65;;
78508;SDS011;67802;50.846;7.958;2023-06-14T05:29:49;7.35;;;2.80;;
78508;SDS011;67802;50.846;7.958;2023-06-14T05:32:15;6.80;;;2.80;;
78508;SDS011;67802;50.846;7.958;2023-06-14T05:34:40;7.75;;;2.78;;
78508;SDS011;67802;50.846;7.958;2023-06-14T05:37:07;6.70;;;2.70;;
78508;SDS011;67802;50.846;7.958;2023-06-14T05:39:32;6.72;;;2.85;;
78508;SDS011;67802;50.846;7.958;2023-06-14T05:41:57;5.20;;;2.50;;
78508;SDS011;67802;50.846;7.958;2023-06-14T05:44:23;7.22;;;2.65;;
78508;SDS011;67802;50.846;7.958;2023-06-14T05:46:48;5.60;;;2.40;;
78508;SDS011;67802;50.846;7.958;2023-06-14T05:49:13;6.10;;;2.67;;
78508;SDS011;67802;50.846;7.958;2023-06-14T05:51:39;5.95;;;2.47;;
78508;SDS011;67802;50.846;7.958;2023-06-14T05:54:04;4.78;;;2.58;;
78508;SDS011;67802;50.846;7.958;2023-06-14T05:56:29;5.32;;;2.50;;
78508;SDS011;67802;50.846;7.958;2023-06-14T05:58:55;5.53;;;2.50;;
78508;SDS011;67802;50.846;7.958;2023-06-14T06:01:20;4.65;;;2.30;;
78508;SDS011;67802;50.846;7.958;2023-06-14T06:03:45;5.93;;;2.65;;
78508;SDS011;67802;50.846;7.958;2023-06-14T06:06:11;4.50;;;2.05;;
78508;SDS011;67802;50.846;7.958;2023-06-14T06:08:37;5.15;;;2.25;;
78508;SDS011;67802;50.846;7.958;2023-06-14T06:11:03;6.43;;;2.00;;
78508;SDS011;67802;50.846;7.958;2023-06-14T06:13:28;5.25;;;2.00;;
78508;SDS011;67802;50.846;7.958;2023-06-14T06:15:53;4.43;;;2.10;;
78508;SDS011;67802;50.846;7.958;2023-06-14T06:18:19;5.80;;;2.00;;
78508;SDS011;67802;50.846;7.958;2023-06-14T06:20:44;4.72;;;2.00;;
78508;SDS011;67802;50.846;7.958;2023-06-14T06:23:12;5.00;;;1.92;;
78508;SDS011;67802;50.846;7.958;2023-06-14T06:25:37;4.07;;;1.88;;
78508;SDS011;67802;50.846;7.958;2023-06-14T06:28:03;4.40;;;1.92;;
78508;SDS011;67802;50.846;7.958;2023-06-14T06:30:28;4.53;;;1.80;;
78508;SDS011;67802;50.846;7.958;2023-06-14T06:32:53;3.90;;;1.55;;
78508;SDS011;67802;50.846;7.958;2023-06-14T06:35:20;5.57;;;1.70;;
78508;SDS011;67802;50.846;7.958;2023-06-14T06:37:46;4.95;;;1.70;;
78508;SDS011;67802;50.846;7.958;2023-06-14T06:40:11;4.15;;;1.85;;
78508;SDS011;67802;50.846;7.958;2023-06-14T06:42:37;4.70;;;1.73;;
78508;SDS011;67802;50.846;7.958;2023-06-14T06:45:02;4.68;;;1.75;;
78508;SDS011;67802;50.846;7.958;2023-06-14T06:47:28;3.03;;;1.42;;
78508;SDS011;67802;50.846;7.958;2023-06-14T06:49:53;3.75;;;1.70;;
78508;SDS011;67802;50.846;7.958;2023-06-14T06:52:19;5.45;;;1.75;;
78508;SDS011;67802;50.846;7.958;2023-06-14T06:54:44;4.68;;;1.88;;
78508;SDS011;67802;50.846;7.958;2023-06-14T06:57:10;4.20;;;1.70;;
78508;SDS011;67802;50.846;7.958;2023-06-14T06:59:36;3.88;;;1.63;;
78508;SDS011;67802;50.846;7.958;2023-06-14T07:02:01;4.05;;;1.65;;
78508;SDS011;67802;50.846;7.958;2023-06-14T07:04:27;5.00;;;1.75;;
78508;SDS011;67802;50.846;7.958;2023-06-14T07:06:52;3.65;;;1.60;;
78508;SDS011;67802;50.846;7.958;2023-06-14T07:09:17;3.88;;;1.52;;
78508;SDS011;67802;50.846;7.958;2023-06-14T07:11:44;3.47;;;1.52;;
78508;SDS011;67802;50.846;7.958;2023-06-14T07:14:10;3.40;;;1.50;;
78508;SDS011;67802;50.846;7.958;2023-06-14T07:16:35;4.68;;;2.10;;
78508;SDS011;67802;50.846;7.958;2023-06-14T07:19:01;3.35;;;1.38;;
78508;SDS011;67802;50.846;7.958;2023-06-14T07:21:28;5.55;;;1.60;;
78508;SDS011;67802;50.846;7.958;2023-06-14T07:23:54;4.13;;;1.70;;
78508;SDS011;67802;50.846;7.958;2023-06-14T07:26:20;4.53;;;1.63;;
78508;SDS011;67802;50.846;7.958;2023-06-14T07:28:46;3.83;;;1.50;;
78508;SDS011;67802;50.846;7.958;2023-06-14T07:31:12;5.13;;;1.60;;
78508;SDS011;67802;50.846;7.958;2023-06-14T07:33:38;3.78;;;1.40;;
78508;SDS011;67802;50.846;7.958;2023-06-14T07:36:03;3.97;;;1.63;;
78508;SDS011;67802;50.846;7.958;2023-06-14T07:38:29;4.45;;;1.70;;
78508;SDS011;67802;50.846;7.958;2023-06-14T07:40:54;5.15;;;1.77;;
78508;SDS011;67802;50.846;7.958;2023-06-14T07:43:19;5.50;;;1.60;;
78508;SDS011;67802;50.846;7.958;2023-06-14T07:45:45;4.30;;;1.67;;
78508;SDS011;67802;50.846;7.958;2023-06-14T07:48:10;3.83;;;1.52;;
78508;SDS011;67802;50.846;7.958;2023-06-14T07:50:36;4.15;;;1.80;;
78508;SDS011;67802;50.846;7.958;2023-06-14T07:53:01;3.25;;;1.63;;
78508;SDS011;67802;50.846;7.958;2023-06-14T07:55:26;4.25;;;1.60;;
78508;SDS011;67802;50.846;7.958;2023-06-14T07:57:52;4.00;;;1.67;;
78508;SDS011;67802;50.846;7.958;2023-06-14T08:00:18;3.25;;;1.40;;
78508;SDS011;67802;50.846;7.958;2023-06-14T08:02:45;4.07;;;1.65;;
78508;SDS011;67802;50.846;7.958;2023-06-14T08:05:10;3.47;;;1.33;;
78508;SDS011;67802;50.846;7.958;2023-06-14T08:07:36;4.03;;;1.52;;
78508;SDS011;67802;50.846;7.958;2023-06-14T08:10:03;2.83;;;1.30;;
78508;SDS011;67802;50.846;7.958;2023-06-14T08:12:29;5.22;;;1.52;;
78508;SDS011;67802;50.846;7.958;2023-06-14T08:14:54;3.33;;;1.60;;
78508;SDS011;67802;50.846;7.958;2023-06-14T08:17:20;4.57;;;1.52;;
78508;SDS011;67802;50.846;7.958;2023-06-14T08:19:45;4.28;;;1.75;;
78508;SDS011;67802;50.846;7.958;2023-06-14T08:22:10;3.13;;;1.45;;
78508;SDS011;67802;50.846;7.958;2023-06-14T08:24:37;3.92;;;1.67;;
78508;SDS011;67802;50.846;7.958;2023-06-14T08:27:02;3.28;;;1.30;;
78508;SDS011;67802;50.846;7.958;2023-06-14T08:29:28;5.10;;;1.48;;
78508;SDS011;67802;50.846;7.958;2023-06-14T08:31:56;3.45;;;1.65;;
78508;SDS011;67802;50.846;7.958;2023-06-14T08:34:21;2.90;;;1.45;;
78508;SDS011;67802;50.846;7.958;2023-06-14T08:36:48;3.00;;;1.38;;
78508;SDS011;67802;50.846;7.958;2023-06-14T08:39:15;3.05;;;1.40;;
78508;SDS011;67802;50.846;7.958;2023-06-14T08:41:41;3.95;;;1.42;;
78508;SDS011;67802;50.846;7.958;2023-06-14T08:44:10;4.25;;;1.45;;
78508;SDS011;67802;50.846;7.958;2023-06-14T08:46:36;2.78;;;1.27;;
78508;SDS011;67802;50.846;7.958;2023-06-14T08:49:02;3.17;;;1.38;;
78508;SDS011;67802;50.846;7.958;2023-06-14T08:51:30;2.63;;;1.20;;
78508;SDS011;67802;50.846;7.958;2023-06-14T08:54:01;3.83;;;1.38;;
78508;SDS011;67802;50.846;7.958;2023-06-14T08:56:29;2.70;;;1.25;;
78508;SDS011;67802;50.846;7.958;2023-06-14T08:58:55;3.92;;;1.20;;
78508;SDS011;67802;50.846;7.958;2023-06-14T09:01:28;2.38;;;1.00;;
78508;SDS011;67802;50.846;7.958;2023-06-14T09:03:53;3.25;;;1.30;;
78508;SDS011;67802;50.846;7.958;2023-06-14T09:06:22;3.08;;;1.20;;
78508;SDS011;67802;50.846;7.958;2023-06-14T09:08:48;2.30;;;1.10;;
78508;SDS011;67802;50.846;7.958;2023-06-14T09:11:14;3.00;;;1.17;;
78508;SDS011;67802;50.846;7.958;2023-06-14T09:13:41;2.83;;;1.20;;
78508;SDS011;67802;50.846;7.958;2023-06-14T09:16:07;3.72;;;1.23;;
78508;SDS011;67802;50.846;7.958;2023-06-14T09:18:36;3.50;;;1.35;;
78508;SDS011;67802;50.846;7.958;2023-06-14T09:21:06;2.80;;;1.20;;
78508;SDS011;67802;50.846;7.958;2023-06-14T09:23:38;3.60;;;1.30;;
78508;SDS011;67802;50.846;7.958;2023-06-14T09:26:09;2.88;;;1.20;;
78508;SDS011;67802;50.846;7.958;2023-06-14T09:28:36;2.85;;;1.27;;
78508;SDS011;67802;50.846;7.958;2023-06-14T09:31:05;2.67;;;1.25;;
78508;SDS011;67802;50.846;7.958;2023-06-14T09:33:34;2.60;;;1.15;;
78508;SDS011;67802;50.846;7.958;2023-06-14T09:36:00;4.55;;;1.13;;
78508;SDS011;67802;50.846;7.958;2023-06-14T09:38:25;4.32;;;1.13;;
78508;SDS011;67802;50.846;7.958;2023-06-14T09:40:51;2.35;;;1.20;;
78508;SDS011;67802;50.846;7.958;2023-06-14T09:43:17;4.70;;;1.10;;
78508;SDS011;67802;50.846;7.958;2023-06-14T12:56:48;5.47;;;1.80;;
78508;SDS011;67802;50.846;7.958;2023-06-14T12:59:13;4.28;;;1.75;;
78508;SDS011;67802;50.846;7.958;2023-06-14T13:01:39;6.57;;;2.00;;
78508;SDS011;67802;50.846;7.958;2023-06-14T13:04:05;6.70;;;1.98;;
78508;SDS011;67802;50.846;7.958;2023-06-14T13:06:30;4.68;;;1.83;;
78508;SDS011;67802;50.846;7.958;2023-06-14T13:08:56;5.20;;;1.70;;
78508;SDS011;67802;50.846;7.958;2023-06-14T13:11:22;4.50;;;1.60;;
78508;SDS011;67802;50.846;7.958;2023-06-14T13:13:48;5.30;;;1.80;;
78508;SDS011;67802;50.846;7.958;2023-06-14T13:16:13;4.38;;;1.80;;
78508;SDS011;67802;50.846;7.958;2023-06-14T13:18:39;4.80;;;1.75;;
78508;SDS011;67802;50.846;7.958;2023-06-14T13:21:05;3.95;;;1.80;;
78508;SDS011;67802;50.846;7.958;2023-06-14T13:23:30;6.03;;;1.92;;
78508;SDS011;67802;50.846;7.958;2023-06-14T13:25:55;4.93;;;1.80;;
78508;SDS011;67802;50.846;7.958;2023-06-14T13:28:21;4.53;;;1.73;;
78508;SDS011;67802;50.846;7.958;2023-06-14T13:30:47;4.22;;;1.70;;
78508;SDS011;67802;50.846;7.958;2023-06-14T13:33:13;4.60;;;1.95;;
78508;SDS011;67802;50.846;7.958;2023-06-14T13:35:38;5.20;;;2.00;;
78508;SDS011;67802;50.846;7.958;2023-06-14T13:38:03;4.77;;;1.97;;
78508;SDS011;67802;50.846;7.958;2023-06-14T13:40:29;3.78;;;1.80;;
78508;SDS011;67802;50.846;7.958;2023-06-14T13:42:54;3.80;;;1.75;;
78508;SDS011;67802;50.846;7.958;2023-06-14T13:45:20;4.45;;;1.70;;
78508;SDS011;67802;50.846;7.958;2023-06-14T13:47:45;4.57;;;1.95;;
78508;SDS011;67802;50.846;7.958;2023-06-14T13:50:13;4.13;;;1.73;;
78508;SDS011;67802;50.846;7.958;2023-06-14T13:52:39;5.15;;;1.70;;
78508;SDS011;67802;50.846;7.958;2023-06-14T13:55:04;4.55;;;2.00;;
78508;SDS011;67802;50.846;7.958;2023-06-14T13:57:30;5.15;;;2.00;;
78508;SDS011;67802;50.846;7.958;2023-06-14T13:59:55;3.85;;;1.73;;
78508;SDS011;67802;50.846;7.958;2023-06-14T14:02:25;4.43;;;1.85;;
78508;SDS011;67802;50.846;7.958;2023-06-14T14:04:51;3.67;;;1.90;;
78508;SDS011;67802;50.846;7.958;2023-06-14T14:07:18;5.10;;;1.73;;
78508;SDS011;67802;50.846;7.958;2023-06-14T14:09:45;3.60;;;1.70;;
78508;SDS011;67802;50.846;7.958;2023-06-14T14:12:10;4.57;;;1.80;;
78508;SDS011;67802;50.846;7.958;2023-06-14T14:14:36;3.40;;;1.80;;
78508;SDS011;67802;50.846;7.958;2023-06-14T14:17:02;4.57;;;1.50;;
78508;SDS011;67802;50.846;7.958;2023-06-14T14:19:27;5.20;;;1.50;;
78508;SDS011;67802;50.846;7.958;2023-06-14T14:21:52;3.80;;;1.73;;
78508;SDS011;67802;50.846;7.958;2023-06-14T14:24:18;3.90;;;1.80;;
78508;SDS011;67802;50.846;7.958;2023-06-14T14:26:44;3.92;;;1.80;;
78508;SDS011;67802;50.846;7.958;2023-06-14T14:29:12;4.03;;;1.90;;
78508;SDS011;67802;50.846;7.958;2023-06-14T14:31:37;3.63;;;1.67;;
78508;SDS011;67802;50.846;7.958;2023-06-14T14:34:03;5.43;;;1.90;;
78508;SDS011;67802;50.846;7.958;2023-06-14T14:36:28;3.50;;;1.70;;
78508;SDS011;67802;50.846;7.958;2023-06-14T14:38:53;3.03;;;1.52;;
78508;SDS011;67802;50.846;7.958;2023-06-14T14:41:19;3.83;;;1.77;;
78508;SDS011;67802;50.846;7.958;2023-06-14T14:43:44;4.10;;;1.80;;
78508;SDS011;67802;50.846;7.958;2023-06-14T14:46:09;4.50;;;1.73;;
78508;SDS011;67802;50.846;7.958;2023-06-14T14:48:35;4.28;;;1.80;;
78508;SDS011;67802;50.846;7.958;2023-06-14T14:51:00;3.67;;;1.75;;
78508;SDS011;67802;50.846;7.958;2023-06-14T14:53:26;4.28;;;1.95;;
78508;SDS011;67802;50.846;7.958;2023-06-14T14:55:51;4.20;;;1.90;;
78508;SDS011;67802;50.846;7.958;2023-06-14T14:58:16;4.20;;;2.00;;
78508;SDS011;67802;50.846;7.958;2023-06-14T15:00:43;4.10;;;2.03;;
78508;SDS011;67802;50.846;7.958;2023-06-14T15:03:12;3.40;;;1.70;;
78508;SDS011;67802;50.846;7.958;2023-06-14T15:05:38;4.97;;;2.00;;
78508;SDS011;67802;50.846;7.958;2023-06-14T15:08:03;4.97;;;2.00;;
78508;SDS011;67802;50.846;7.958;2023-06-14T15:10:30;3.55;;;1.73;;
78508;SDS011;67802;50.846;7.958;2023-06-14T15:12:56;5.60;;;2.05;;
78508;SDS011;67802;50.846;7.958;2023-06-14T15:15:22;4.65;;;1.83;;
78508;SDS011;67802;50.846;7.958;2023-06-14T15:17:47;4.78;;;1.90;;
78508;SDS011;67802;50.846;7.958;2023-06-14T15:20:13;3.45;;;1.60;;
78508;SDS011;67802;50.846;7.958;2023-06-14T15:22:38;3.75;;;1.80;;
78508;SDS011;67802;50.846;7.958;2023-06-14T15:25:04;3.92;;;1.90;;
78508;SDS011;67802;50.846;7.958;2023-06-14T15:27:30;5.50;;;2.25;;
78508;SDS011;67802;50.846;7.958;2023-06-14T15:29:55;3.83;;;1.88;;
78508;SDS011;67802;50.846;7.958;2023-06-14T15:32:21;3.33;;;1.65;;
78508;SDS011;67802;50.846;7.958;2023-06-14T15:34:47;3.95;;;1.92;;
78508;SDS011;67802;50.846;7.958;2023-06-14T15:37:12;4.43;;;2.10;;
78508;SDS011;67802;50.846;7.958;2023-06-14T15:39:38;3.55;;;1.83;;
78508;SDS011;67802;50.846;7.958;2023-06-14T15:42:03;4.65;;;1.92;;
78508;SDS011;67802;50.846;7.958;2023-06-14T15:44:29;4.10;;;2.17;;
78508;SDS011;67802;50.846;7.958;2023-06-14T15:46:54;4.30;;;2.10;;
78508;SDS011;67802;50.846;7.958;2023-06-14T15:49:20;4.45;;;1.88;;
78508;SDS011;67802;50.846;7.958;2023-06-14T15:51:45;3.90;;;1.83;;
78508;SDS011;67802;50.846;7.958;2023-06-14T15:54:10;3.67;;;1.70;;
78508;SDS011;67802;50.846;7.958;2023-06-14T15:56:36;5.00;;;2.00;;
78508;SDS011;67802;50.846;7.958;2023-06-14T15:59:01;4.20;;;1.73;;
78508;SDS011;67802;50.846;7.958;2023-06-14T16:01:27;5.22;;;1.90;;
78508;SDS011;67802;50.846;7.958;2023-06-14T16:03:52;5.63;;;1.90;;
78508;SDS011;67802;50.846;7.958;2023-06-14T16:06:18;3.63;;;1.83;;
78508;SDS011;67802;50.846;7.958;2023-06-14T16:08:44;4.28;;;2.08;;
78508;SDS011;67802;50.846;7.958;2023-06-14T16:11:10;5.47;;;1.70;;
78508;SDS011;67802;50.846;7.958;2023-06-14T16:13:35;3.85;;;1.77;;
78508;SDS011;67802;50.846;7.958;2023-06-14T16:16:01;4.78;;;2.03;;
78508;SDS011;67802;50.846;7.958;2023-06-14T16:18:26;4.75;;;1.80;;
78508;SDS011;67802;50.846;7.958;2023-06-14T16:20:51;4.60;;;2.03;;
78508;SDS011;67802;50.846;7.958;2023-06-14T16:23:19;3.70;;;1.80;;
78508;SDS011;67802;50.846;7.958;2023-06-14T16:25:46;3.92;;;1.90;;
78508;SDS011;67802;50.846;7.958;2023-06-14T16:28:11;4.40;;;1.90;;
78508;SDS011;67802;50.846;7.958;2023-06-14T16:30:36;4.93;;;1.90;;
78508;SDS011;67802;50.846;7.958;2023-06-14T16:33:02;3.95;;;2.00;;
78508;SDS011;67802;50.846;7.958;2023-06-14T16:35:27;5.22;;;1.80;;
78508;SDS011;67802;50.846;7.958;2023-06-14T16:37:52;3.50;;;1.77;;
78508;SDS011;67802;50.846;7.958;2023-06-14T16:40:18;3.83;;;1.88;;
78508;SDS011;67802;50.846;7.958;2023-06-14T16:42:43;4.25;;;1.80;;
78508;SDS011;67802;50.846;7.958;2023-06-14T16:45:10;3.58;;;1.80;;
78508;SDS011;67802;50.846;7.958;2023-06-14T16:47:35;4.10;;;1.60;;
78508;SDS011;67802;50.846;7.958;2023-06-14T16:50:01;3.90;;;1.98;;
78508;SDS011;67802;50.846;7.958;2023-06-14T16:52:26;4.60;;;1.80;;
78508;SDS011;67802;50.846;7.958;2023-06-14T16:54:52;4.40;;;1.75;;
78508;SDS011;67802;50.846;7.958;2023-06-14T16:57:17;4.18;;;1.83;;
78508;SDS011;67802;50.846;7.958;2023-06-14T16:59:42;5.00;;;1.85;;
78508;SDS011;67802;50.846;7.958;2023-06-14T17:02:08;3.72;;;1.85;;
78508;SDS011;67802;50.846;7.958;2023-06-14T17:04:33;3.65;;;1.83;;
78508;SDS011;67802;50.846;7.958;2023-06-14T17:06:58;4.38;;;1.90;;
78508;SDS011;67802;50.846;7.958;2023-06-14T17:09:23;3.80;;;1.90;;
78508;SDS011;67802;50.846;7.958;2023-06-14T17:11:49;5.72;;;1.83;;
78508;SDS011;67802;50.846;7.958;2023-06-14T17:14:14;4.15;;;1.98;;
78508;SDS011;67802;50.846;7.958;2023-06-14T17:16:40;5.80;;;1.95;;
78508;SDS011;67802;50.846;7.958;2023-06-14T17:19:06;4.63;;;2.00;;
78508;SDS011;67802;50.846;7.958;2023-06-14T17:21:31;5.18;;;2.17;;
78508;SDS011;67802;50.846;7.958;2023-06-14T17:23:57;4.63;;;1.92;;
78508;SDS011;67802;50.846;7.958;2023-06-14T17:26:23;4.22;;;1.90;;
78508;SDS011;67802;50.846;7.958;2023-06-14T17:28:48;4.93;;;2.03;;
78508;SDS011;67802;50.846;7.958;2023-06-14T17:31:14;4.50;;;1.90;;
78508;SDS011;67802;50.846;7.958;2023-06-14T17:33:39;4.88;;;2.00;;
78508;SDS011;67802;50.846;7.958;2023-06-14T17:36:04;4.03;;;1.90;;
78508;SDS011;67802;50.846;7.958;2023-06-14T17:38:30;3.92;;;2.00;;
78508;SDS011;67802;50.846;7.958;2023-06-14T17:40:55;4.22;;;2.00;;
78508;SDS011;67802;50.846;7.958;2023-06-14T17:43:23;5.18;;;2.03;;
78508;SDS011;67802;50.846;7.958;2023-06-14T17:45:49;4.65;;;1.85;;
78508;SDS011;67802;50.846;7.958;2023-06-14T17:48:14;5.60;;;2.03;;
78508;SDS011;67802;50.846;7.958;2023-06-14T17:50:40;4.22;;;2.00;;
78508;SDS011;67802;50.846;7.958;2023-06-14T17:53:05;4.15;;;2.05;;
78508;SDS011;67802;50.846;7.958;2023-06-14T17:55:31;5.00;;;2.05;;